createdAt,value
2023-04-12T00:00:21.200Z,6.00
2023-04-12T00:02:53.775Z,5.70
2023-04-12T00:05:22.308Z,5.40
2023-04-12T00:07:52.543Z,5.80
2023-04-12T00:10:20.343Z,6.00
2023-04-12T00:12:47.281Z,6.20
2023-04-12T00:15:14.838Z,6.30
2023-04-12T00:17:42.477Z,6.00
2023-04-12T00:20:13.064Z,6.60
2023-04-12T00:22:44.501Z,6.60
2023-04-12T00:25:12.437Z,7.20
2023-04-12T00:27:39.233Z,6.70
2023-04-12T00:30:08.686Z,7.20
2023-04-12T00:32:35.864Z,7.00
2023-04-12T00:35:02.566Z,7.40
2023-04-12T00:37:29.876Z,7.30
2023-04-12T00:39:56.607Z,7.50
2023-04-12T00:44:56.078Z,8.00
2023-04-12T00:47:22.760Z,8.00
2023-04-12T00:49:49.614Z,7.90
2023-04-12T00:52:17.453Z,7.80
2023-04-12T00:54:51.382Z,8.10
2023-04-12T00:57:18.017Z,8.40
2023-04-12T00:59:44.721Z,8.10
2023-04-12T01:02:12.842Z,8.80
2023-04-12T01:04:43.217Z,8.50
2023-04-12T01:07:18.945Z,8.40
2023-04-12T01:10:04.645Z,9.00
2023-04-12T01:12:46.394Z,8.60
2023-04-12T01:15:14.166Z,9.10
2023-04-12T01:17:57.464Z,8.90
2023-04-12T01:20:27.049Z,9.10
2023-04-12T01:23:27.974Z,7.70
2023-04-12T01:26:32.471Z,8.90
2023-04-12T01:29:10.402Z,8.60
2023-04-12T01:31:48.915Z,8.80
2023-04-12T01:34:16.083Z,8.90
2023-04-12T01:36:43.413Z,9.30
2023-04-12T01:39:10.298Z,8.70
2023-04-12T01:41:41.584Z,9.70
2023-04-12T01:44:08.304Z,9.50
2023-04-12T01:46:36.955Z,9.30
2023-04-12T01:49:03.687Z,9.30
2023-04-12T01:52:07.630Z,10.00
2023-04-12T01:54:39.305Z,8.70
2023-04-12T01:57:07.950Z,10.10
2023-04-12T01:59:41.247Z,9.00
2023-04-12T02:02:12.819Z,9.50
2023-04-12T02:04:41.145Z,9.20
2023-04-12T02:07:08.989Z,9.30
2023-04-12T02:09:38.781Z,9.30
2023-04-12T02:12:07.000Z,9.60
2023-04-12T02:14:33.695Z,9.00
2023-04-12T02:17:07.980Z,8.60
2023-04-12T02:19:36.007Z,8.50
2023-04-12T02:22:03.889Z,9.00
2023-04-12T02:24:36.961Z,9.40
2023-04-12T02:27:04.187Z,8.20
2023-04-12T02:29:31.030Z,8.70
2023-04-12T02:31:57.814Z,9.00
2023-04-12T02:34:26.397Z,9.20
2023-04-12T02:37:04.106Z,7.70
2023-04-12T02:39:31.653Z,8.60
2023-04-12T02:41:58.748Z,9.10
2023-04-12T02:44:25.426Z,8.60
2023-04-12T02:47:08.512Z,9.00
2023-04-12T02:49:39.876Z,7.00
2023-04-12T02:52:08.258Z,6.90
2023-04-12T02:54:41.054Z,7.40
2023-04-12T02:57:11.097Z,8.00
2023-04-12T02:59:45.026Z,8.20
2023-04-12T03:02:35.827Z,8.00
2023-04-12T03:05:04.385Z,8.00
2023-04-12T03:07:41.403Z,8.00
2023-04-12T03:10:10.943Z,8.30
2023-04-12T03:12:42.233Z,8.40
2023-04-12T03:15:22.919Z,9.30
2023-04-12T03:17:50.964Z,8.10
2023-04-12T03:20:20.045Z,8.20
2023-04-12T03:22:51.755Z,7.90
2023-04-12T03:25:19.046Z,7.60
2023-04-12T03:27:55.492Z,8.60
2023-04-12T03:30:25.830Z,8.30
2023-04-12T03:32:55.146Z,8.30
2023-04-12T03:35:26.130Z,8.30
2023-04-12T03:37:53.752Z,8.00
2023-04-12T03:40:20.867Z,8.00
2023-04-12T03:42:52.520Z,8.20
2023-04-12T03:45:19.711Z,8.70
2023-04-12T03:47:50.176Z,8.40
2023-04-12T03:50:19.234Z,8.70
2023-04-12T03:52:52.524Z,7.90
2023-04-12T03:55:19.651Z,8.80
2023-04-12T03:57:48.221Z,8.20
2023-04-12T04:00:15.307Z,8.50
2023-04-12T04:03:05.175Z,7.80
2023-04-12T04:05:39.007Z,8.60
2023-04-12T04:08:08.280Z,8.60
2023-04-12T04:10:46.414Z,8.40
2023-04-12T04:13:33.269Z,8.40
2023-04-12T04:16:04.475Z,8.20
2023-04-12T04:18:32.085Z,7.90
2023-04-12T04:20:59.341Z,8.10
2023-04-12T04:23:28.551Z,8.60
2023-04-12T04:25:55.780Z,9.20
2023-04-12T04:28:24.717Z,9.20
2023-04-12T04:30:55.186Z,9.60
2023-04-12T04:33:22.875Z,8.80
2023-04-12T04:35:51.815Z,8.90
2023-04-12T04:38:32.119Z,9.30
2023-04-12T04:41:06.275Z,8.30
2023-04-12T04:46:30.589Z,9.00
2023-04-12T04:48:59.474Z,8.80
2023-04-12T04:51:27.097Z,8.70
2023-04-12T04:53:54.643Z,8.90
2023-04-12T04:56:24.542Z,8.80
2023-04-12T04:58:57.070Z,8.50
2023-04-12T05:01:28.907Z,9.20
2023-04-12T05:04:00.268Z,8.80
2023-04-12T05:06:27.608Z,7.70
2023-04-12T05:08:56.091Z,8.80
2023-04-12T05:11:25.891Z,8.70
2023-04-12T05:13:57.365Z,8.30
2023-04-12T05:16:24.976Z,8.30
2023-04-12T05:18:57.474Z,8.50
2023-04-12T05:21:24.742Z,7.60
2023-04-12T05:23:51.600Z,8.30
2023-04-12T05:26:25.729Z,8.40
2023-04-12T05:28:54.741Z,8.00
2023-04-12T05:31:21.814Z,8.00
2023-04-12T05:33:49.026Z,7.70
2023-04-12T05:36:18.643Z,6.90
2023-04-12T05:38:46.636Z,7.60
2023-04-12T05:41:14.328Z,7.30
2023-04-12T05:43:42.686Z,6.50
2023-04-12T05:57:58.763Z,6.60
2023-04-12T06:00:27.475Z,6.00
2023-04-12T06:02:54.309Z,6.90
2023-04-12T06:05:22.303Z,6.40
2023-04-12T06:07:49.977Z,6.60
2023-04-12T06:10:16.956Z,7.40
2023-04-12T06:12:47.071Z,5.80
2023-04-12T06:15:15.430Z,7.00
2023-04-12T06:17:43.093Z,6.40
2023-04-12T06:20:13.678Z,7.20
2023-04-12T06:22:40.916Z,6.60
2023-04-12T06:25:08.143Z,6.40
2023-04-12T06:27:36.802Z,6.60
2023-04-12T06:30:03.843Z,6.10
2023-04-12T06:32:34.273Z,6.10
2023-04-12T06:35:05.479Z,5.90
2023-04-12T06:37:32.932Z,5.70
2023-04-12T06:39:59.742Z,5.60
2023-04-12T06:42:27.133Z,6.00
2023-04-12T06:44:56.274Z,6.20
2023-04-12T06:47:25.660Z,6.00
2023-04-12T06:49:55.590Z,5.30
2023-04-12T06:52:26.160Z,6.70
2023-04-12T06:54:54.492Z,6.10
2023-04-12T07:03:43.893Z,6.30
2023-04-12T07:06:24.240Z,5.80
2023-04-12T07:08:55.377Z,5.80
2023-04-12T07:11:23.467Z,6.20
2023-04-12T07:14:00.967Z,5.90
2023-04-12T07:16:31.126Z,6.00
2023-04-12T07:18:59.554Z,5.60
2023-04-12T07:21:31.829Z,5.10
2023-04-12T07:24:01.061Z,5.30
2023-04-12T07:26:28.098Z,5.40
2023-04-12T07:29:02.986Z,5.60
2023-04-12T07:31:30.243Z,4.80
2023-04-12T07:33:57.053Z,5.50
2023-04-12T07:36:24.488Z,5.30
2023-04-12T07:38:54.772Z,5.10
2023-04-12T07:41:27.062Z,5.20
2023-04-12T07:43:55.977Z,4.80
2023-04-12T07:46:22.977Z,5.10
2023-04-12T07:48:51.805Z,4.80
2023-04-12T07:51:19.307Z,5.40
2023-04-12T07:53:47.855Z,5.20
2023-04-12T07:56:16.935Z,4.50
2023-04-12T07:58:44.094Z,4.70
2023-04-12T08:01:11.650Z,4.20
2023-04-12T08:03:39.366Z,4.70
2023-04-12T08:06:07.129Z,4.10
2023-04-12T08:08:34.439Z,4.10
2023-04-12T08:11:02.580Z,4.20
2023-04-12T08:13:30.128Z,4.10
2023-04-12T08:15:57.504Z,3.90
2023-04-12T08:18:24.414Z,4.30
2023-04-12T08:20:51.462Z,3.70
2023-04-12T08:23:23.151Z,4.20
2023-04-12T08:25:51.801Z,4.50
2023-04-12T08:28:18.588Z,3.90
2023-04-12T08:30:45.723Z,4.20
2023-04-12T08:33:12.595Z,3.90
2023-04-12T08:35:42.478Z,4.40
2023-04-12T08:38:09.356Z,4.10
2023-04-12T08:40:36.760Z,4.30
2023-04-12T08:43:06.742Z,3.90
2023-04-12T08:45:34.965Z,3.90
2023-04-12T08:48:03.250Z,4.10
2023-04-12T08:50:30.286Z,3.90
2023-04-12T08:53:07.704Z,3.70
2023-04-12T08:55:35.142Z,4.50
2023-04-12T08:58:06.640Z,4.50
2023-04-12T09:00:33.644Z,3.90
2023-04-12T09:03:00.641Z,3.80
2023-04-12T09:05:29.468Z,4.10
2023-04-12T09:12:48.014Z,3.30
2023-04-12T09:15:17.051Z,3.70
2023-04-12T09:17:43.972Z,4.20
2023-04-12T09:20:16.901Z,3.70
2023-04-12T09:27:13.658Z,4.30
2023-04-12T09:29:40.832Z,4.30
2023-04-12T09:32:17.168Z,4.00
2023-04-12T09:34:57.402Z,3.90
2023-04-12T09:37:25.280Z,3.50
2023-04-12T09:40:06.146Z,3.70
2023-04-12T09:42:34.925Z,4.30
2023-04-12T09:45:19.586Z,4.00
2023-04-12T09:47:46.437Z,4.00
2023-04-12T09:50:39.575Z,4.00
2023-04-12T09:53:17.703Z,3.80
2023-04-12T09:55:50.525Z,3.80
2023-04-12T09:58:18.728Z,3.90
2023-04-12T10:00:47.263Z,3.90
2023-04-12T10:03:15.425Z,3.70
2023-04-12T10:05:42.483Z,3.60
2023-04-12T10:08:11.451Z,3.50
2023-04-12T10:10:40.463Z,3.80
2023-04-12T10:13:09.631Z,3.60
2023-04-12T10:20:09.488Z,4.10
2023-04-12T10:22:39.040Z,3.40
2023-04-12T10:25:10.250Z,3.60
2023-04-12T10:27:37.270Z,4.00
2023-04-12T10:30:30.111Z,3.70
2023-04-12T10:33:04.430Z,3.80
2023-04-12T10:35:57.398Z,3.60
2023-04-12T10:38:31.795Z,3.30
2023-04-12T10:41:18.677Z,4.10
2023-04-12T10:48:03.785Z,4.40
2023-04-12T10:50:34.738Z,4.00
2023-04-12T10:53:17.677Z,4.30
2023-04-12T10:55:44.852Z,4.10
2023-04-12T10:58:47.062Z,4.10
2023-04-12T11:06:12.704Z,4.40
2023-04-12T11:09:22.502Z,4.30
2023-04-12T11:11:49.912Z,4.70
2023-04-12T11:14:17.133Z,5.40
2023-04-12T11:17:06.352Z,5.40
2023-04-12T11:24:07.362Z,5.80
2023-04-12T11:26:34.065Z,5.80
2023-04-12T11:29:07.029Z,5.60
2023-04-12T11:31:37.429Z,5.20
2023-04-12T11:34:05.312Z,6.30
2023-04-12T11:36:32.493Z,7.70
2023-04-12T11:38:59.966Z,7.90
2023-04-12T11:41:27.309Z,8.10
2023-04-12T11:43:55.696Z,8.80
2023-04-12T11:46:22.857Z,9.20
2023-04-12T11:48:49.716Z,10.40
2023-04-12T11:51:28.756Z,9.90
2023-04-12T11:53:58.627Z,8.60
2023-04-12T11:56:26.652Z,7.90
2023-04-12T11:58:53.645Z,8.00
2023-04-12T12:01:21.454Z,7.90
2023-04-12T12:03:49.699Z,8.80
2023-04-12T12:06:16.917Z,9.50
2023-04-12T12:08:44.030Z,9.20
2023-04-12T12:11:11.047Z,9.40
2023-04-12T12:13:48.262Z,10.10
2023-04-12T12:16:15.704Z,10.10
2023-04-12T12:18:49.110Z,9.60
2023-04-12T12:21:18.686Z,9.90
2023-04-12T12:23:45.907Z,9.20
2023-04-12T12:26:25.822Z,9.10
2023-04-12T12:28:53.931Z,9.30
2023-04-12T12:31:23.244Z,10.10
2023-04-12T12:33:59.637Z,9.10
2023-04-12T12:36:34.097Z,9.40
2023-04-12T12:39:06.371Z,9.30
2023-04-12T12:41:33.526Z,9.40
2023-04-12T12:44:04.511Z,7.70
2023-04-12T12:46:50.872Z,7.30
2023-04-12T12:49:18.969Z,7.10
2023-04-12T12:51:46.172Z,6.90
2023-04-12T12:54:13.169Z,7.10
2023-04-12T12:56:46.189Z,7.00
2023-04-12T12:59:13.159Z,7.60
2023-04-12T13:01:40.044Z,6.40
2023-04-12T13:04:07.105Z,5.80
2023-04-12T13:06:36.220Z,6.00
2023-04-12T13:09:03.215Z,6.20
2023-04-12T13:11:33.241Z,5.40
2023-04-12T13:14:00.615Z,6.40
2023-04-12T13:16:28.263Z,6.00
2023-04-12T13:18:55.792Z,5.80
2023-04-12T13:21:23.475Z,5.30
2023-04-12T13:23:51.589Z,5.70
2023-04-12T13:26:18.451Z,5.80
2023-04-12T13:28:45.690Z,5.60
2023-04-12T13:31:20.155Z,5.80
2023-04-12T13:33:47.855Z,5.10
2023-04-12T13:36:15.210Z,4.80
2023-04-12T13:38:42.072Z,4.60
2023-04-12T13:41:09.080Z,4.30
2023-04-12T13:43:36.064Z,5.00
2023-04-12T13:46:04.498Z,5.60
2023-04-12T13:48:35.286Z,5.80
2023-04-12T13:51:05.870Z,5.80
2023-04-12T13:53:38.256Z,5.30
2023-04-12T13:56:07.460Z,5.90
2023-04-12T13:58:39.220Z,6.30
2023-04-12T14:01:10.769Z,6.50
2023-04-12T14:03:42.140Z,7.20
2023-04-12T14:06:12.013Z,7.00
2023-04-12T14:08:41.826Z,7.80
2023-04-12T14:11:12.532Z,8.20
2023-04-12T14:13:41.735Z,7.90
2023-04-12T14:16:11.457Z,7.30
2023-04-12T14:18:42.750Z,7.20
2023-04-12T14:21:14.230Z,8.80
2023-04-12T14:23:43.808Z,9.20
2023-04-12T14:31:06.297Z,7.10
2023-04-12T14:33:40.335Z,8.90
2023-04-12T14:36:10.281Z,8.90
2023-04-12T14:38:42.366Z,8.70
2023-04-12T14:41:14.413Z,9.00
2023-04-12T14:43:43.014Z,8.60
2023-04-12T14:54:03.089Z,8.90
2023-04-12T14:56:31.282Z,10.30
2023-04-12T14:59:05.230Z,9.90
2023-04-12T15:01:33.718Z,9.60
2023-04-12T15:04:01.025Z,9.20
2023-04-12T15:06:34.508Z,9.10
2023-04-12T15:09:05.741Z,9.20
2023-04-12T15:11:46.416Z,9.50
2023-04-12T15:14:19.768Z,8.40
2023-04-12T15:16:48.424Z,8.30
2023-04-12T15:19:20.246Z,8.80
2023-04-12T15:21:51.470Z,9.10
2023-04-12T15:24:27.700Z,8.80
2023-04-12T15:26:54.705Z,8.40
2023-04-12T15:29:26.158Z,9.70
2023-04-12T15:31:55.957Z,8.60
2023-04-12T15:34:27.898Z,9.60
2023-04-12T15:36:54.537Z,8.50
2023-04-12T15:39:27.221Z,8.90
2023-04-12T15:41:54.315Z,9.90
2023-04-12T15:44:22.136Z,9.30
2023-04-12T15:47:03.211Z,9.20
2023-04-12T15:49:38.305Z,9.30
2023-04-12T15:52:04.971Z,12.20
2023-04-12T15:54:34.880Z,12.80
2023-04-12T15:57:08.834Z,13.00
2023-04-12T15:59:40.180Z,12.80
2023-04-12T16:02:09.115Z,13.20
2023-04-12T16:04:36.438Z,14.00
2023-04-12T16:07:04.039Z,12.90
2023-04-12T16:09:32.554Z,13.60
2023-04-12T16:12:01.451Z,14.20
2023-04-12T16:14:29.630Z,13.40
2023-04-12T16:17:01.230Z,13.40
2023-04-12T16:19:28.981Z,10.80
2023-04-12T16:21:56.052Z,10.80
2023-04-12T16:24:28.260Z,10.10
2023-04-12T16:26:55.519Z,10.20
2023-04-12T16:29:23.556Z,9.00
2023-04-12T16:31:51.755Z,8.80
2023-04-12T16:34:21.501Z,8.90
2023-04-12T16:36:48.568Z,9.50
2023-04-12T16:39:16.018Z,7.80
2023-04-12T16:41:46.365Z,8.90
2023-04-12T16:44:19.538Z,8.30
2023-04-12T16:46:53.580Z,8.70
2023-04-12T16:49:21.724Z,8.80
2023-04-12T16:51:49.619Z,8.40
2023-04-12T16:54:17.225Z,8.40
2023-04-12T16:56:44.405Z,8.20
2023-04-12T16:59:11.085Z,7.30
2023-04-12T17:01:38.829Z,7.20
2023-04-12T17:04:05.821Z,7.30
2023-04-12T17:06:33.411Z,7.30
2023-04-12T17:09:05.560Z,6.30
2023-04-12T17:11:34.462Z,5.30
2023-04-12T17:14:01.543Z,5.20
2023-04-12T17:16:30.416Z,5.10
2023-04-12T17:18:59.366Z,5.10
2023-04-12T17:21:26.881Z,4.90
2023-04-12T17:23:55.610Z,3.80
2023-04-12T17:26:26.087Z,4.20
2023-04-12T17:28:54.029Z,4.20
2023-04-12T17:31:21.965Z,5.10
2023-04-12T17:33:50.384Z,4.80
2023-04-12T17:36:17.416Z,5.60
2023-04-12T17:38:44.057Z,5.50
2023-04-12T17:41:10.598Z,5.20
2023-04-12T17:43:37.495Z,5.00
2023-04-12T17:46:08.098Z,5.10
2023-04-12T17:48:35.311Z,4.50
2023-04-12T17:51:02.675Z,4.50
2023-04-12T17:53:33.184Z,4.20
2023-04-12T17:56:01.653Z,3.70
2023-04-12T17:58:29.334Z,3.10
2023-04-12T18:00:56.968Z,2.90
2023-04-12T18:03:24.537Z,3.20
2023-04-12T18:05:54.926Z,2.80
2023-04-12T18:08:27.802Z,3.30
2023-04-12T18:10:55.410Z,2.70
2023-04-12T18:13:22.859Z,2.60
2023-04-12T18:15:49.612Z,2.20
2023-04-12T18:18:18.336Z,2.30
2023-04-12T18:20:45.561Z,1.90
2023-04-12T18:23:12.205Z,2.20
2023-04-12T18:25:40.036Z,2.00
2023-04-12T18:28:07.621Z,2.60
2023-04-12T18:30:34.452Z,2.30
2023-04-12T18:33:03.636Z,2.20
2023-04-12T18:35:31.463Z,2.30
2023-04-12T18:37:58.600Z,2.30
2023-04-12T18:40:25.415Z,2.30
2023-04-12T18:42:52.228Z,2.10
2023-04-12T18:45:19.418Z,2.30
2023-04-12T18:47:47.241Z,1.60
2023-04-12T18:50:14.177Z,2.00
2023-04-12T18:52:41.301Z,1.70
2023-04-12T18:55:09.449Z,2.10
2023-04-12T18:57:36.986Z,1.80
2023-04-12T19:00:13.975Z,2.00
2023-04-12T19:02:42.368Z,1.90
2023-04-12T19:05:11.079Z,2.10
2023-04-12T19:07:38.297Z,2.30
2023-04-12T19:10:05.373Z,2.80
2023-04-12T19:12:34.784Z,3.00
2023-04-12T19:15:01.903Z,3.10
2023-04-12T19:17:29.871Z,3.50
2023-04-12T19:19:57.983Z,3.40
2023-04-12T19:22:27.272Z,3.20
2023-04-12T19:24:54.061Z,3.10
2023-04-12T19:27:22.227Z,3.80
2023-04-12T19:29:50.847Z,3.40
2023-04-12T19:32:18.280Z,3.70
2023-04-12T19:34:46.271Z,4.20
2023-04-12T19:37:12.951Z,3.70
2023-04-12T19:39:40.609Z,4.60
2023-04-12T19:42:07.354Z,4.90
2023-04-12T19:44:34.012Z,4.20
2023-04-12T19:47:01.062Z,4.90
2023-04-12T19:49:28.264Z,4.50
2023-04-12T19:51:55.811Z,4.10
2023-04-12T19:54:23.235Z,5.20
2023-04-12T19:56:52.824Z,4.60
2023-04-12T19:59:20.401Z,4.50
2023-04-12T20:01:47.577Z,4.50
2023-04-12T20:04:19.545Z,4.70
2023-04-12T20:06:49.004Z,5.00
2023-04-12T20:09:16.671Z,5.10
2023-04-12T20:11:43.450Z,4.90
2023-04-12T20:14:10.961Z,4.80
2023-04-12T20:16:40.957Z,5.80
2023-04-12T20:19:07.734Z,5.10
2023-04-12T20:21:35.464Z,5.70
2023-04-12T20:24:02.156Z,5.10
2023-04-12T20:26:31.906Z,5.50
2023-04-12T20:29:00.024Z,4.60
2023-04-12T20:31:26.935Z,5.00
2023-04-12T20:33:56.724Z,4.80
2023-04-12T20:36:25.802Z,5.20
2023-04-12T20:38:53.112Z,5.80
2023-04-12T20:41:19.737Z,5.40
2023-04-12T20:43:47.197Z,5.10
2023-04-12T20:46:25.079Z,5.40
2023-04-12T20:48:55.686Z,5.00
2023-04-12T20:51:22.525Z,6.10
2023-04-12T20:53:51.079Z,5.60
2023-04-12T20:56:20.273Z,6.00
2023-04-12T20:58:49.253Z,6.50
2023-04-12T21:01:16.440Z,7.50
2023-04-12T21:03:43.985Z,7.50
2023-04-12T21:06:11.063Z,10.10
2023-04-12T21:08:38.228Z,12.10
2023-04-12T21:11:05.552Z,12.70
2023-04-12T21:13:33.761Z,10.70
2023-04-12T21:16:02.600Z,10.40
2023-04-12T21:18:33.637Z,9.80
2023-04-12T21:21:00.619Z,9.40
2023-04-12T21:23:30.085Z,7.60
2023-04-12T21:25:57.530Z,7.80
2023-04-12T21:28:24.371Z,7.80
2023-04-12T21:30:54.465Z,7.80
2023-04-12T21:33:25.611Z,7.50
2023-04-12T21:35:53.882Z,8.10
2023-04-12T21:38:21.809Z,6.60
2023-04-12T21:40:48.655Z,5.80
2023-04-12T21:43:15.751Z,5.90
2023-04-12T21:45:42.841Z,5.20
2023-04-12T21:48:09.526Z,5.30
2023-04-12T21:50:37.537Z,5.60
2023-04-12T21:53:04.329Z,4.80
2023-04-12T21:55:32.303Z,4.40
2023-04-12T21:57:58.876Z,4.80
2023-04-12T22:00:27.732Z,4.90
2023-04-12T22:02:54.885Z,4.90
2023-04-12T22:05:21.882Z,4.90
2023-04-12T22:07:49.726Z,4.70
2023-04-12T22:10:18.197Z,4.80
2023-04-12T22:12:49.653Z,4.90
2023-04-12T22:15:19.885Z,4.80
2023-04-12T22:17:47.948Z,4.10
2023-04-12T22:20:20.457Z,4.90
2023-04-12T22:22:50.308Z,5.00
2023-04-12T22:25:17.949Z,4.80
2023-04-12T22:27:45.841Z,4.60
2023-04-12T22:30:14.188Z,5.20
2023-04-12T22:32:41.118Z,5.00
2023-04-12T22:35:09.456Z,4.40
2023-04-12T22:37:41.519Z,4.60
2023-04-12T22:40:12.902Z,4.60
2023-04-12T22:42:45.454Z,5.10
2023-04-12T22:45:15.879Z,5.10
2023-04-12T22:47:45.704Z,4.60
2023-04-12T22:50:16.149Z,4.90
2023-04-12T22:52:42.838Z,5.40
2023-04-12T22:55:12.156Z,5.70
2023-04-12T22:57:44.395Z,6.10
2023-04-12T23:00:13.454Z,5.70
2023-04-12T23:02:43.384Z,6.50
2023-04-12T23:05:11.357Z,6.40
2023-04-12T23:07:40.762Z,6.20
2023-04-12T23:10:08.462Z,6.10
2023-04-12T23:12:36.595Z,5.70
2023-04-12T23:15:06.740Z,5.30
2023-04-12T23:17:33.907Z,5.30
2023-04-12T23:20:01.128Z,5.20
2023-04-12T23:22:54.994Z,5.10
2023-04-12T23:25:38.563Z,5.10
2023-04-12T23:28:13.716Z,5.00
2023-04-12T23:30:48.146Z,5.40
2023-04-12T23:33:20.305Z,5.70
2023-04-12T23:35:48.860Z,5.40
2023-04-12T23:38:26.536Z,5.00
2023-04-12T23:40:53.433Z,5.50
2023-04-12T23:43:20.988Z,5.90
2023-04-12T23:45:47.748Z,5.50
2023-04-12T23:48:15.777Z,5.70
2023-04-12T23:50:45.127Z,5.30
2023-04-12T23:53:12.248Z,5.70
2023-04-12T23:55:41.303Z,5.20
2023-04-12T23:58:08.599Z,6.50
